sensor_id;sensor_type;location;lat;lon;timestamp;temperature;humidity
28863;DHT22;15994;51.796;13.006;2023-04-10T00:01:59;5.90;99.90
28863;DHT22;15994;51.796;13.006;2023-04-10T00:04:26;5.80;99.90
28863;DHT22;15994;51.796;13.006;2023-04-10T00:06:52;5.80;99.90
28863;DHT22;15994;51.796;13.006;2023-04-10T00:09:19;5.80;99.90
28863;DHT22;15994;51.796;13.006;2023-04-10T00:11:46;5.80;99.90
28863;DHT22;15994;51.796;13.006;2023-04-10T00:14:12;5.70;99.90
28863;DHT22;15994;51.796;13.006;2023-04-10T00:16:39;5.70;99.90
28863;DHT22;15994;51.796;13.006;2023-04-10T00:19:05;5.70;99.90
28863;DHT22;15994;51.796;13.006;2023-04-10T00:21:32;5.70;99.90
28863;DHT22;15994;51.796;13.006;2023-04-10T00:23:58;5.70;99.90
28863;DHT22;15994;51.796;13.006;2023-04-10T00:26:25;5.70;99.90
28863;DHT22;15994;51.796;13.006;2023-04-10T00:28:51;5.70;99.90
28863;DHT22;15994;51.796;13.006;2023-04-10T00:31:18;5.60;99.90
28863;DHT22;15994;51.796;13.006;2023-04-10T00:33:44;5.60;99.90
28863;DHT22;15994;51.796;13.006;2023-04-10T00:36:11;5.60;99.90
28863;DHT22;15994;51.796;13.006;2023-04-10T00:38:37;5.60;99.90
28863;DHT22;15994;51.796;13.006;2023-04-10T00:41:04;5.60;99.90
28863;DHT22;15994;51.796;13.006;2023-04-10T00:43:31;5.60;99.90
28863;DHT22;15994;51.796;13.006;2023-04-10T00:45:58;5.60;99.90
28863;DHT22;15994;51.796;13.006;2023-04-10T00:48:25;5.50;99.90
28863;DHT22;15994;51.796;13.006;2023-04-10T00:50:52;5.50;99.90
28863;DHT22;15994;51.796;13.006;2023-04-10T00:53:18;5.40;99.90
28863;DHT22;15994;51.796;13.006;2023-04-10T00:55:45;5.40;99.90
28863;DHT22;15994;51.796;13.006;2023-04-10T00:58:12;5.40;99.90
28863;DHT22;15994;51.796;13.006;2023-04-10T01:00:39;5.40;99.90
28863;DHT22;15994;51.796;13.006;2023-04-10T01:03:07;5.30;99.90
28863;DHT22;15994;51.796;13.006;2023-04-10T01:05:40;5.30;99.90
28863;DHT22;15994;51.796;13.006;2023-04-10T01:08:20;5.30;99.90
28863;DHT22;15994;51.796;13.006;2023-04-10T01:11:45;5.20;99.90
28863;DHT22;15994;51.796;13.006;2023-04-10T01:13:54;5.20;99.90
28863;DHT22;15994;51.796;13.006;2023-04-10T01:16:26;5.20;99.90
28863;DHT22;15994;51.796;13.006;2023-04-10T01:19:17;5.20;99.90
28863;DHT22;15994;51.796;13.006;2023-04-10T01:21:50;5.10;99.90
28863;DHT22;15994;51.796;13.006;2023-04-10T01:24:33;5.00;99.90
28863;DHT22;15994;51.796;13.006;2023-04-10T01:29:45;5.00;99.90
28863;DHT22;15994;51.796;13.006;2023-04-10T01:32:16;5.00;99.90
28863;DHT22;15994;51.796;13.006;2023-04-10T01:34:49;4.90;99.90
28863;DHT22;15994;51.796;13.006;2023-04-10T01:37:24;4.90;99.90
28863;DHT22;15994;51.796;13.006;2023-04-10T01:40:00;4.90;99.90
28863;DHT22;15994;51.796;13.006;2023-04-10T01:42:31;4.80;99.90
28863;DHT22;15994;51.796;13.006;2023-04-10T01:45:00;4.80;99.90
28863;DHT22;15994;51.796;13.006;2023-04-10T01:47:27;4.80;99.90
28863;DHT22;15994;51.796;13.006;2023-04-10T01:49:56;4.80;99.90
28863;DHT22;15994;51.796;13.006;2023-04-10T01:52:24;4.80;99.90
28863;DHT22;15994;51.796;13.006;2023-04-10T01:54:51;4.80;99.90
28863;DHT22;15994;51.796;13.006;2023-04-10T01:57:19;4.80;99.90
28863;DHT22;15994;51.796;13.006;2023-04-10T01:59:46;4.80;99.90
28863;DHT22;15994;51.796;13.006;2023-04-10T02:02:12;4.80;99.90
28863;DHT22;15994;51.796;13.006;2023-04-10T02:04:39;4.80;99.90
28863;DHT22;15994;51.796;13.006;2023-04-10T02:07:10;4.70;99.90
28863;DHT22;15994;51.796;13.006;2023-04-10T02:10:01;4.70;99.90
28863;DHT22;15994;51.796;13.006;2023-04-10T02:12:31;4.60;99.90
28863;DHT22;15994;51.796;13.006;2023-04-10T02:15:03;4.60;99.90
28863;DHT22;15994;51.796;13.006;2023-04-10T02:17:32;4.60;99.90
28863;DHT22;15994;51.796;13.006;2023-04-10T02:20:00;4.50;99.90
28863;DHT22;15994;51.796;13.006;2023-04-10T02:22:28;4.50;99.90
28863;DHT22;15994;51.796;13.006;2023-04-10T02:24:56;4.50;99.90
28863;DHT22;15994;51.796;13.006;2023-04-10T02:27:29;4.40;99.90
28863;DHT22;15994;51.796;13.006;2023-04-10T02:29:56;4.30;99.90
28863;DHT22;15994;51.796;13.006;2023-04-10T02:32:23;4.20;99.90
28863;DHT22;15994;51.796;13.006;2023-04-10T02:34:49;4.20;99.90
28863;DHT22;15994;51.796;13.006;2023-04-10T02:37:16;4.20;99.90
28863;DHT22;15994;51.796;13.006;2023-04-10T02:39:42;4.20;99.90
28863;DHT22;15994;51.796;13.006;2023-04-10T02:42:09;4.10;99.90
28863;DHT22;15994;51.796;13.006;2023-04-10T02:44:36;4.20;99.90
28863;DHT22;15994;51.796;13.006;2023-04-10T02:47:04;4.20;99.90
28863;DHT22;15994;51.796;13.006;2023-04-10T02:49:32;4.20;99.90
28863;DHT22;15994;51.796;13.006;2023-04-10T02:51:59;4.30;99.90
28863;DHT22;15994;51.796;13.006;2023-04-10T02:54:26;4.20;99.90
28863;DHT22;15994;51.796;13.006;2023-04-10T02:56:52;4.20;99.90
28863;DHT22;15994;51.796;13.006;2023-04-10T02:59:19;4.30;99.90
28863;DHT22;15994;51.796;13.006;2023-04-10T03:01:46;4.30;99.90
28863;DHT22;15994;51.796;13.006;2023-04-10T03:04:12;4.30;99.90
28863;DHT22;15994;51.796;13.006;2023-04-10T03:06:39;4.30;99.90
28863;DHT22;15994;51.796;13.006;2023-04-10T03:09:05;4.20;99.90
28863;DHT22;15994;51.796;13.006;2023-04-10T03:11:32;4.30;99.90
28863;DHT22;15994;51.796;13.006;2023-04-10T03:13:58;4.30;99.90
28863;DHT22;15994;51.796;13.006;2023-04-10T03:16:25;4.20;99.90
28863;DHT22;15994;51.796;13.006;2023-04-10T03:18:52;4.30;99.90
28863;DHT22;15994;51.796;13.006;2023-04-10T03:21:18;4.30;99.90
28863;DHT22;15994;51.796;13.006;2023-04-10T03:23:45;4.30;99.90
28863;DHT22;15994;51.796;13.006;2023-04-10T03:26:12;4.30;99.90
28863;DHT22;15994;51.796;13.006;2023-04-10T03:28:38;4.30;99.90
28863;DHT22;15994;51.796;13.006;2023-04-10T03:31:05;4.30;99.90
28863;DHT22;15994;51.796;13.006;2023-04-10T03:33:32;4.30;99.90
28863;DHT22;15994;51.796;13.006;2023-04-10T03:35:58;4.20;99.90
28863;DHT22;15994;51.796;13.006;2023-04-10T03:38:25;4.20;99.90
28863;DHT22;15994;51.796;13.006;2023-04-10T03:40:52;4.10;99.90
28863;DHT22;15994;51.796;13.006;2023-04-10T03:43:18;4.10;99.90
28863;DHT22;15994;51.796;13.006;2023-04-10T03:45:45;4.10;99.90
28863;DHT22;15994;51.796;13.006;2023-04-10T03:48:12;4.10;99.90
28863;DHT22;15994;51.796;13.006;2023-04-10T03:50:38;4.20;99.90
28863;DHT22;15994;51.796;13.006;2023-04-10T03:53:05;4.10;99.90
28863;DHT22;15994;51.796;13.006;2023-04-10T03:55:31;4.10;99.90
28863;DHT22;15994;51.796;13.006;2023-04-10T03:57:58;4.10;99.90
28863;DHT22;15994;51.796;13.006;2023-04-10T04:00:25;4.10;99.90
28863;DHT22;15994;51.796;13.006;2023-04-10T04:02:52;4.10;99.90
28863;DHT22;15994;51.796;13.006;2023-04-10T04:05:19;4.10;99.90
28863;DHT22;15994;51.796;13.006;2023-04-10T04:07:45;4.10;99.90
28863;DHT22;15994;51.796;13.006;2023-04-10T04:10:13;4.10;99.90
28863;DHT22;15994;51.796;13.006;2023-04-10T04:12:39;4.10;99.90
28863;DHT22;15994;51.796;13.006;2023-04-10T04:15:06;4.00;99.90
28863;DHT22;15994;51.796;13.006;2023-04-10T04:17:33;4.00;99.90
28863;DHT22;15994;51.796;13.006;2023-04-10T04:19:59;3.90;99.90
28863;DHT22;15994;51.796;13.006;2023-04-10T04:22:27;3.90;99.90
28863;DHT22;15994;51.796;13.006;2023-04-10T04:24:53;3.80;99.90
28863;DHT22;15994;51.796;13.006;2023-04-10T04:27:19;3.80;99.90
28863;DHT22;15994;51.796;13.006;2023-04-10T04:29:47;3.80;99.90
28863;DHT22;15994;51.796;13.006;2023-04-10T04:32:14;3.80;99.90
28863;DHT22;15994;51.796;13.006;2023-04-10T04:34:40;3.80;99.90
28863;DHT22;15994;51.796;13.006;2023-04-10T04:37:07;3.70;99.90
28863;DHT22;15994;51.796;13.006;2023-04-10T04:39:33;3.70;99.90
28863;DHT22;15994;51.796;13.006;2023-04-10T04:42:00;3.60;99.90
28863;DHT22;15994;51.796;13.006;2023-04-10T04:44:26;3.60;99.90
28863;DHT22;15994;51.796;13.006;2023-04-10T04:46:53;3.60;99.90
28863;DHT22;15994;51.796;13.006;2023-04-10T04:49:19;3.50;99.90
28863;DHT22;15994;51.796;13.006;2023-04-10T04:51:46;3.50;99.90
28863;DHT22;15994;51.796;13.006;2023-04-10T04:54:12;3.40;99.90
28863;DHT22;15994;51.796;13.006;2023-04-10T04:56:39;3.20;99.90
28863;DHT22;15994;51.796;13.006;2023-04-10T04:59:05;3.30;99.90
28863;DHT22;15994;51.796;13.006;2023-04-10T05:01:32;3.30;99.90
28863;DHT22;15994;51.796;13.006;2023-04-10T05:03:58;3.30;99.90
28863;DHT22;15994;51.796;13.006;2023-04-10T05:06:25;3.50;99.90
28863;DHT22;15994;51.796;13.006;2023-04-10T05:08:51;3.50;99.90
28863;DHT22;15994;51.796;13.006;2023-04-10T05:11:18;3.60;99.90
28863;DHT22;15994;51.796;13.006;2023-04-10T05:13:44;3.60;99.90
28863;DHT22;15994;51.796;13.006;2023-04-10T05:16:11;3.60;99.90
28863;DHT22;15994;51.796;13.006;2023-04-10T05:18:37;3.60;99.90
28863;DHT22;15994;51.796;13.006;2023-04-10T05:21:04;3.60;99.90
28863;DHT22;15994;51.796;13.006;2023-04-10T05:23:31;3.60;99.90
28863;DHT22;15994;51.796;13.006;2023-04-10T05:25:57;3.80;99.90
28863;DHT22;15994;51.796;13.006;2023-04-10T05:28:24;3.80;99.90
28863;DHT22;15994;51.796;13.006;2023-04-10T05:30:50;3.90;99.90
28863;DHT22;15994;51.796;13.006;2023-04-10T05:33:17;4.00;99.90
28863;DHT22;15994;51.796;13.006;2023-04-10T05:35:45;4.10;99.90
28863;DHT22;15994;51.796;13.006;2023-04-10T05:38:11;4.20;99.90
28863;DHT22;15994;51.796;13.006;2023-04-10T05:40:38;4.20;99.90
28863;DHT22;15994;51.796;13.006;2023-04-10T05:43:04;4.40;99.90
28863;DHT22;15994;51.796;13.006;2023-04-10T05:45:31;4.40;99.90
28863;DHT22;15994;51.796;13.006;2023-04-10T05:47:57;4.50;99.90
28863;DHT22;15994;51.796;13.006;2023-04-10T05:50:24;4.50;99.90
28863;DHT22;15994;51.796;13.006;2023-04-10T05:52:50;4.60;99.90
28863;DHT22;15994;51.796;13.006;2023-04-10T05:55:17;4.70;99.90
28863;DHT22;15994;51.796;13.006;2023-04-10T05:57:43;4.70;99.90
28863;DHT22;15994;51.796;13.006;2023-04-10T06:00:10;4.80;99.90
28863;DHT22;15994;51.796;13.006;2023-04-10T06:02:37;4.90;99.90
28863;DHT22;15994;51.796;13.006;2023-04-10T06:05:03;5.00;99.90
28863;DHT22;15994;51.796;13.006;2023-04-10T06:07:30;5.00;99.90
28863;DHT22;15994;51.796;13.006;2023-04-10T06:09:57;5.10;99.90
28863;DHT22;15994;51.796;13.006;2023-04-10T06:12:24;5.20;99.90
28863;DHT22;15994;51.796;13.006;2023-04-10T06:14:50;5.30;99.90
28863;DHT22;15994;51.796;13.006;2023-04-10T06:17:17;5.40;99.90
28863;DHT22;15994;51.796;13.006;2023-04-10T06:19:45;5.40;99.90
28863;DHT22;15994;51.796;13.006;2023-04-10T06:22:11;5.50;99.90
28863;DHT22;15994;51.796;13.006;2023-04-10T06:24:38;5.50;99.90
28863;DHT22;15994;51.796;13.006;2023-04-10T06:27:04;5.60;99.90
28863;DHT22;15994;51.796;13.006;2023-04-10T06:29:31;5.70;99.90
28863;DHT22;15994;51.796;13.006;2023-04-10T06:31:57;5.80;99.90
28863;DHT22;15994;51.796;13.006;2023-04-10T06:34:25;5.90;99.90
28863;DHT22;15994;51.796;13.006;2023-04-10T06:36:51;6.10;99.90
28863;DHT22;15994;51.796;13.006;2023-04-10T06:39:18;6.20;99.90
28863;DHT22;15994;51.796;13.006;2023-04-10T06:41:45;6.30;99.90
28863;DHT22;15994;51.796;13.006;2023-04-10T06:44:11;6.40;99.90
28863;DHT22;15994;51.796;13.006;2023-04-10T06:46:38;6.50;99.90
28863;DHT22;15994;51.796;13.006;2023-04-10T06:49:04;6.50;99.90
28863;DHT22;15994;51.796;13.006;2023-04-10T06:51:31;6.50;99.90
28863;DHT22;15994;51.796;13.006;2023-04-10T06:53:57;6.60;99.90
28863;DHT22;15994;51.796;13.006;2023-04-10T06:56:24;6.70;99.90
28863;DHT22;15994;51.796;13.006;2023-04-10T06:58:51;6.80;99.90
28863;DHT22;15994;51.796;13.006;2023-04-10T07:01:17;6.90;99.90
28863;DHT22;15994;51.796;13.006;2023-04-10T07:03:44;6.90;99.90
28863;DHT22;15994;51.796;13.006;2023-04-10T07:06:10;7.00;99.90
28863;DHT22;15994;51.796;13.006;2023-04-10T07:08:37;7.00;99.90
28863;DHT22;15994;51.796;13.006;2023-04-10T07:11:03;7.20;99.90
28863;DHT22;15994;51.796;13.006;2023-04-10T07:13:30;7.20;99.90
28863;DHT22;15994;51.796;13.006;2023-04-10T07:15:56;7.30;99.90
28863;DHT22;15994;51.796;13.006;2023-04-10T07:18:23;7.50;99.90
28863;DHT22;15994;51.796;13.006;2023-04-10T07:20:50;7.60;99.90
28863;DHT22;15994;51.796;13.006;2023-04-10T07:23:16;7.70;99.90
28863;DHT22;15994;51.796;13.006;2023-04-10T07:25:45;7.80;99.90
28863;DHT22;15994;51.796;13.006;2023-04-10T07:28:15;7.90;99.90
28863;DHT22;15994;51.796;13.006;2023-04-10T07:30:42;7.90;99.90
28863;DHT22;15994;51.796;13.006;2023-04-10T07:33:09;8.00;99.90
28863;DHT22;15994;51.796;13.006;2023-04-10T07:35:35;8.10;99.90
28863;DHT22;15994;51.796;13.006;2023-04-10T07:38:01;8.20;99.90
28863;DHT22;15994;51.796;13.006;2023-04-10T07:40:28;8.20;99.90
28863;DHT22;15994;51.796;13.006;2023-04-10T07:42:55;8.30;99.90
28863;DHT22;15994;51.796;13.006;2023-04-10T07:45:21;8.40;99.90
28863;DHT22;15994;51.796;13.006;2023-04-10T07:47:48;8.60;99.90
28863;DHT22;15994;51.796;13.006;2023-04-10T07:50:14;8.70;99.90
28863;DHT22;15994;51.796;13.006;2023-04-10T07:52:41;8.90;99.90
28863;DHT22;15994;51.796;13.006;2023-04-10T07:55:08;9.00;99.90
28863;DHT22;15994;51.796;13.006;2023-04-10T07:57:35;9.20;99.90
28863;DHT22;15994;51.796;13.006;2023-04-10T08:00:02;9.30;99.90
28863;DHT22;15994;51.796;13.006;2023-04-10T08:02:29;9.40;99.90
28863;DHT22;15994;51.796;13.006;2023-04-10T08:04:55;9.40;99.90
28863;DHT22;15994;51.796;13.006;2023-04-10T08:07:22;9.60;99.90
28863;DHT22;15994;51.796;13.006;2023-04-10T08:09:48;9.70;99.90
28863;DHT22;15994;51.796;13.006;2023-04-10T08:12:15;9.80;99.90
28863;DHT22;15994;51.796;13.006;2023-04-10T08:14:41;9.90;99.90
28863;DHT22;15994;51.796;13.006;2023-04-10T08:17:09;10.00;99.90
28863;DHT22;15994;51.796;13.006;2023-04-10T08:19:42;10.00;99.90
28863;DHT22;15994;51.796;13.006;2023-04-10T08:22:08;10.20;99.90
28863;DHT22;15994;51.796;13.006;2023-04-10T08:24:35;10.30;99.90
28863;DHT22;15994;51.796;13.006;2023-04-10T08:27:01;10.40;99.90
28863;DHT22;15994;51.796;13.006;2023-04-10T08:29:28;10.40;99.90
28863;DHT22;15994;51.796;13.006;2023-04-10T08:31:54;10.50;99.90
28863;DHT22;15994;51.796;13.006;2023-04-10T08:34:24;10.60;99.90
28863;DHT22;15994;51.796;13.006;2023-04-10T08:36:51;10.70;99.90
28863;DHT22;15994;51.796;13.006;2023-04-10T08:39:17;10.80;99.90
28863;DHT22;15994;51.796;13.006;2023-04-10T08:41:44;10.80;99.90
28863;DHT22;15994;51.796;13.006;2023-04-10T08:44:11;11.00;99.90
28863;DHT22;15994;51.796;13.006;2023-04-10T08:46:41;11.10;99.90
28863;DHT22;15994;51.796;13.006;2023-04-10T08:49:11;11.20;99.90
28863;DHT22;15994;51.796;13.006;2023-04-10T08:51:45;11.40;99.90
28863;DHT22;15994;51.796;13.006;2023-04-10T08:54:19;11.40;99.90
28863;DHT22;15994;51.796;13.006;2023-04-10T08:56:49;11.50;99.90
28863;DHT22;15994;51.796;13.006;2023-04-10T08:59:16;11.60;99.90
28863;DHT22;15994;51.796;13.006;2023-04-10T09:01:43;11.60;99.90
28863;DHT22;15994;51.796;13.006;2023-04-10T09:04:11;11.70;99.90
28863;DHT22;15994;51.796;13.006;2023-04-10T09:06:38;11.80;99.90
28863;DHT22;15994;51.796;13.006;2023-04-10T09:09:05;12.00;99.90
28863;DHT22;15994;51.796;13.006;2023-04-10T09:11:55;12.10;99.90
28863;DHT22;15994;51.796;13.006;2023-04-10T09:14:26;12.30;99.90
28863;DHT22;15994;51.796;13.006;2023-04-10T09:17:09;12.30;99.90
28863;DHT22;15994;51.796;13.006;2023-04-10T09:19:36;12.40;99.90
28863;DHT22;15994;51.796;13.006;2023-04-10T09:22:02;12.40;99.90
28863;DHT22;15994;51.796;13.006;2023-04-10T09:24:29;12.50;99.90
28863;DHT22;15994;51.796;13.006;2023-04-10T09:26:56;12.50;99.90
28863;DHT22;15994;51.796;13.006;2023-04-10T09:29:24;12.60;99.90
28863;DHT22;15994;51.796;13.006;2023-04-10T09:31:50;12.60;99.90
28863;DHT22;15994;51.796;13.006;2023-04-10T09:34:19;12.70;99.90
28863;DHT22;15994;51.796;13.006;2023-04-10T09:36:57;12.80;99.90
28863;DHT22;15994;51.796;13.006;2023-04-10T09:39:37;12.90;99.90
28863;DHT22;15994;51.796;13.006;2023-04-10T09:42:07;13.00;99.90
28863;DHT22;15994;51.796;13.006;2023-04-10T09:44:38;13.00;99.90
28863;DHT22;15994;51.796;13.006;2023-04-10T09:47:16;13.20;99.90
28863;DHT22;15994;51.796;13.006;2023-04-10T09:49:50;13.20;99.90
28863;DHT22;15994;51.796;13.006;2023-04-10T09:52:23;13.20;99.90
28863;DHT22;15994;51.796;13.006;2023-04-10T09:54:51;13.20;99.90
28863;DHT22;15994;51.796;13.006;2023-04-10T09:57:20;13.10;99.90
28863;DHT22;15994;51.796;13.006;2023-04-10T09:59:52;13.30;99.90
28863;DHT22;15994;51.796;13.006;2023-04-10T10:02:22;13.40;99.90
28863;DHT22;15994;51.796;13.006;2023-04-10T10:04:58;13.60;99.90
28863;DHT22;15994;51.796;13.006;2023-04-10T10:07:30;13.70;99.90
28863;DHT22;15994;51.796;13.006;2023-04-10T10:09:57;13.70;99.90
28863;DHT22;15994;51.796;13.006;2023-04-10T10:15:45;13.90;99.90
28863;DHT22;15994;51.796;13.006;2023-04-10T10:18:26;13.90;99.90
28863;DHT22;15994;51.796;13.006;2023-04-10T10:20:57;14.10;99.90
28863;DHT22;15994;51.796;13.006;2023-04-10T10:23:25;14.10;99.90
28863;DHT22;15994;51.796;13.006;2023-04-10T10:25:53;14.10;99.90
28863;DHT22;15994;51.796;13.006;2023-04-10T10:28:20;14.10;99.90
28863;DHT22;15994;51.796;13.006;2023-04-10T10:30:47;14.20;99.90
28863;DHT22;15994;51.796;13.006;2023-04-10T10:33:14;14.30;99.00
28863;DHT22;15994;51.796;13.006;2023-04-10T10:35:41;14.30;99.40
28863;DHT22;15994;51.796;13.006;2023-04-10T10:38:09;14.40;99.90
28863;DHT22;15994;51.796;13.006;2023-04-10T10:48:59;14.60;97.80
28863;DHT22;15994;51.796;13.006;2023-04-10T10:51:43;14.60;98.60
28863;DHT22;15994;51.796;13.006;2023-04-10T10:54:30;14.90;99.30
28863;DHT22;15994;51.796;13.006;2023-04-10T10:56:58;15.10;99.40
28863;DHT22;15994;51.796;13.006;2023-04-10T11:02:12;15.10;97.70
28863;DHT22;15994;51.796;13.006;2023-04-10T11:04:44;15.10;97.60
28863;DHT22;15994;51.796;13.006;2023-04-10T11:07:11;15.30;98.20
28863;DHT22;15994;51.796;13.006;2023-04-10T11:09:52;15.30;97.70
28863;DHT22;15994;51.796;13.006;2023-04-10T11:12:23;15.40;98.00
28863;DHT22;15994;51.796;13.006;2023-04-10T11:15:00;15.50;98.70
28863;DHT22;15994;51.796;13.006;2023-04-10T11:17:50;15.50;96.90
28863;DHT22;15994;51.796;13.006;2023-04-10T11:20:19;15.60;96.80
28863;DHT22;15994;51.796;13.006;2023-04-10T11:25:46;15.80;97.20
28863;DHT22;15994;51.796;13.006;2023-04-10T11:33:46;15.80;96.10
28863;DHT22;15994;51.796;13.006;2023-04-10T11:36:14;15.90;96.60
28863;DHT22;15994;51.796;13.006;2023-04-10T11:38:59;16.00;96.70
28863;DHT22;15994;51.796;13.006;2023-04-10T11:41:31;16.10;97.30
28863;DHT22;15994;51.796;13.006;2023-04-10T11:44:00;16.10;97.40
28863;DHT22;15994;51.796;13.006;2023-04-10T11:46:28;16.20;97.50
28863;DHT22;15994;51.796;13.006;2023-04-10T11:48:59;16.30;98.10
28863;DHT22;15994;51.796;13.006;2023-04-10T11:51:26;16.20;97.40
28863;DHT22;15994;51.796;13.006;2023-04-10T11:54:10;16.20;98.10
28863;DHT22;15994;51.796;13.006;2023-04-10T11:56:39;16.30;97.40
28863;DHT22;15994;51.796;13.006;2023-04-10T11:59:07;16.40;96.60
28863;DHT22;15994;51.796;13.006;2023-04-10T12:01:39;16.50;96.00
28863;DHT22;15994;51.796;13.006;2023-04-10T12:06:50;16.80;96.90
28863;DHT22;15994;51.796;13.006;2023-04-10T12:09:19;17.00;97.20
28863;DHT22;15994;51.796;13.006;2023-04-10T12:14:22;17.20;96.40
28863;DHT22;15994;51.796;13.006;2023-04-10T12:16:49;17.30;97.00
28863;DHT22;15994;51.796;13.006;2023-04-10T12:19:17;17.40;96.60
28863;DHT22;15994;51.796;13.006;2023-04-10T12:21:44;17.60;96.80
28863;DHT22;15994;51.796;13.006;2023-04-10T12:24:12;17.50;96.30
28863;DHT22;15994;51.796;13.006;2023-04-10T12:26:46;17.50;97.30
28863;DHT22;15994;51.796;13.006;2023-04-10T12:29:14;17.70;97.00
28863;DHT22;15994;51.796;13.006;2023-04-10T12:31:41;17.80;96.50
28863;DHT22;15994;51.796;13.006;2023-04-10T12:34:08;17.90;96.60
28863;DHT22;15994;51.796;13.006;2023-04-10T12:36:35;18.00;96.80
28863;DHT22;15994;51.796;13.006;2023-04-10T12:39:02;17.80;95.90
28863;DHT22;15994;51.796;13.006;2023-04-10T12:41:33;17.60;96.00
28863;DHT22;15994;51.796;13.006;2023-04-10T12:44:11;17.40;96.80
28863;DHT22;15994;51.796;13.006;2023-04-10T12:46:39;17.60;97.60
28863;DHT22;15994;51.796;13.006;2023-04-10T12:49:16;17.80;98.00
28863;DHT22;15994;51.796;13.006;2023-04-10T12:51:49;17.80;97.60
28863;DHT22;15994;51.796;13.006;2023-04-10T12:54:33;17.90;96.80
28863;DHT22;15994;51.796;13.006;2023-04-10T12:57:02;18.00;97.20
28863;DHT22;15994;51.796;13.006;2023-04-10T12:59:29;17.90;97.20
28863;DHT22;15994;51.796;13.006;2023-04-10T13:01:56;17.70;97.20
28863;DHT22;15994;51.796;13.006;2023-04-10T13:04:23;17.60;97.30
28863;DHT22;15994;51.796;13.006;2023-04-10T13:06:49;17.70;97.30
28863;DHT22;15994;51.796;13.006;2023-04-10T13:09:17;17.70;97.20
28863;DHT22;15994;51.796;13.006;2023-04-10T13:11:43;17.80;97.20
28863;DHT22;15994;51.796;13.006;2023-04-10T13:14:10;17.90;97.50
28863;DHT22;15994;51.796;13.006;2023-04-10T13:16:37;18.10;97.00
28863;DHT22;15994;51.796;13.006;2023-04-10T13:19:04;18.20;96.20
28863;DHT22;15994;51.796;13.006;2023-04-10T13:21:30;18.10;96.00
28863;DHT22;15994;51.796;13.006;2023-04-10T13:23:57;18.10;96.50
28863;DHT22;15994;51.796;13.006;2023-04-10T13:26:23;18.10;96.70
28863;DHT22;15994;51.796;13.006;2023-04-10T13:28:50;18.20;96.30
28863;DHT22;15994;51.796;13.006;2023-04-10T13:31:16;18.20;95.80
28863;DHT22;15994;51.796;13.006;2023-04-10T13:33:44;18.20;95.60
28863;DHT22;15994;51.796;13.006;2023-04-10T13:36:15;18.10;95.50
28863;DHT22;15994;51.796;13.006;2023-04-10T13:38:41;18.00;95.30
28863;DHT22;15994;51.796;13.006;2023-04-10T13:41:08;17.90;95.40
28863;DHT22;15994;51.796;13.006;2023-04-10T13:43:35;17.80;95.10
28863;DHT22;15994;51.796;13.006;2023-04-10T13:46:02;17.70;95.20
28863;DHT22;15994;51.796;13.006;2023-04-10T13:48:28;17.50;95.10
28863;DHT22;15994;51.796;13.006;2023-04-10T13:50:55;17.50;95.90
28863;DHT22;15994;51.796;13.006;2023-04-10T13:53:21;17.50;95.50
28863;DHT22;15994;51.796;13.006;2023-04-10T13:55:48;17.50;95.70
28863;DHT22;15994;51.796;13.006;2023-04-10T13:58:14;17.50;95.20
28863;DHT22;15994;51.796;13.006;2023-04-10T14:00:44;17.50;95.50
28863;DHT22;15994;51.796;13.006;2023-04-10T14:03:11;17.50;95.20
28863;DHT22;15994;51.796;13.006;2023-04-10T14:05:38;17.40;95.70
28863;DHT22;15994;51.796;13.006;2023-04-10T14:08:04;17.30;95.30
28863;DHT22;15994;51.796;13.006;2023-04-10T14:10:31;17.20;96.10
28863;DHT22;15994;51.796;13.006;2023-04-10T14:12:57;17.10;95.50
28863;DHT22;15994;51.796;13.006;2023-04-10T14:15:24;17.10;96.00
28863;DHT22;15994;51.796;13.006;2023-04-10T14:17:50;17.10;95.30
28863;DHT22;15994;51.796;13.006;2023-04-10T14:20:17;17.00;95.30
28863;DHT22;15994;51.796;13.006;2023-04-10T14:22:44;16.90;95.30
28863;DHT22;15994;51.796;13.006;2023-04-10T14:25:11;16.90;95.70
28863;DHT22;15994;51.796;13.006;2023-04-10T14:27:40;17.00;95.90
28863;DHT22;15994;51.796;13.006;2023-04-10T14:30:08;17.10;96.00
28863;DHT22;15994;51.796;13.006;2023-04-10T14:32:35;17.10;95.80
28863;DHT22;15994;51.796;13.006;2023-04-10T14:35:01;17.10;95.30
28863;DHT22;15994;51.796;13.006;2023-04-10T14:37:28;17.00;95.30
28863;DHT22;15994;51.796;13.006;2023-04-10T14:39:54;17.00;95.50
28863;DHT22;15994;51.796;13.006;2023-04-10T14:42:21;16.90;95.40
28863;DHT22;15994;51.796;13.006;2023-04-10T14:44:48;16.90;95.90
28863;DHT22;15994;51.796;13.006;2023-04-10T14:47:14;16.80;96.00
28863;DHT22;15994;51.796;13.006;2023-04-10T14:49:41;16.70;95.80
28863;DHT22;15994;51.796;13.006;2023-04-10T14:52:07;16.80;96.40
28863;DHT22;15994;51.796;13.006;2023-04-10T14:54:34;16.90;96.70
28863;DHT22;15994;51.796;13.006;2023-04-10T14:57:00;17.10;96.60
28863;DHT22;15994;51.796;13.006;2023-04-10T14:59:28;17.20;95.90
28863;DHT22;15994;51.796;13.006;2023-04-10T15:01:55;17.30;95.60
28863;DHT22;15994;51.796;13.006;2023-04-10T15:04:23;17.30;94.90
28863;DHT22;15994;51.796;13.006;2023-04-10T15:06:49;17.30;94.90
28863;DHT22;15994;51.796;13.006;2023-04-10T15:09:16;17.30;95.40
28863;DHT22;15994;51.796;13.006;2023-04-10T15:11:43;17.30;95.60
28863;DHT22;15994;51.796;13.006;2023-04-10T15:14:09;17.50;96.00
28863;DHT22;15994;51.796;13.006;2023-04-10T15:16:36;17.60;95.90
28863;DHT22;15994;51.796;13.006;2023-04-10T15:19:02;17.70;95.20
28863;DHT22;15994;51.796;13.006;2023-04-10T15:21:29;17.70;95.00
28863;DHT22;15994;51.796;13.006;2023-04-10T15:23:57;17.80;95.10
28863;DHT22;15994;51.796;13.006;2023-04-10T15:26:25;17.90;94.50
28863;DHT22;15994;51.796;13.006;2023-04-10T15:28:51;17.90;93.90
28863;DHT22;15994;51.796;13.006;2023-04-10T15:31:21;17.80;94.10
28863;DHT22;15994;51.796;13.006;2023-04-10T15:33:50;17.90;94.00
28863;DHT22;15994;51.796;13.006;2023-04-10T15:36:17;17.90;93.70
28863;DHT22;15994;51.796;13.006;2023-04-10T15:38:43;17.80;93.30
28863;DHT22;15994;51.796;13.006;2023-04-10T15:41:11;17.80;93.40
28863;DHT22;15994;51.796;13.006;2023-04-10T15:43:38;17.70;93.00
28863;DHT22;15994;51.796;13.006;2023-04-10T15:46:06;17.60;93.00
28863;DHT22;15994;51.796;13.006;2023-04-10T15:48:33;17.50;92.80
28863;DHT22;15994;51.796;13.006;2023-04-10T15:51:06;17.40;93.00
28863;DHT22;15994;51.796;13.006;2023-04-10T15:53:33;17.50;92.80
28863;DHT22;15994;51.796;13.006;2023-04-10T15:56:03;17.60;92.10
28863;DHT22;15994;51.796;13.006;2023-04-10T15:58:30;17.70;92.80
28863;DHT22;15994;51.796;13.006;2023-04-10T16:00:57;17.80;92.60
28863;DHT22;15994;51.796;13.006;2023-04-10T16:03:23;17.90;92.00